sensor_id;sensor_type;location;lat;lon;timestamp;pressure;altitude;pressure_sealevel;temperature;humidity
11053;BME280;55230;42.602;23.470;2023-02-18T00:00:17;94247.91;;;2.74;80.63
11053;BME280;55230;42.602;23.470;2023-02-18T00:02:45;94247.13;;;2.70;80.94
11053;BME280;55230;42.602;23.470;2023-02-18T00:05:12;94161.34;;;1.80;80.97
11053;BME280;55230;42.602;23.470;2023-02-18T00:07:41;94160.97;;;1.82;81.27
11053;BME280;55230;42.602;23.470;2023-02-18T00:10:10;94233.41;;;2.61;82.00
11053;BME280;55230;42.602;23.470;2023-02-18T00:12:38;94256.63;;;2.57;81.89
11053;BME280;55230;42.602;23.470;2023-02-18T00:15:05;94103.59;;;1.67;82.20
11053;BME280;55230;42.602;23.470;2023-02-18T00:17:32;94193.41;;;2.22;81.90
11053;BME280;55230;42.602;23.470;2023-02-18T00:19:59;94218.97;;;2.55;82.34
11053;BME280;55230;42.602;23.470;2023-02-18T00:22:26;94104.78;;;1.87;81.88
11053;BME280;55230;42.602;23.470;2023-02-18T00:24:54;94167.19;;;2.14;82.59
11053;BME280;55230;42.602;23.470;2023-02-18T00:27:21;94170.22;;;2.23;83.11
11053;BME280;55230;42.602;23.470;2023-02-18T00:29:48;94269.91;;;2.54;83.43
11053;BME280;55230;42.602;23.470;2023-02-18T00:32:14;94197.28;;;2.53;83.12
11053;BME280;55230;42.602;23.470;2023-02-18T00:34:41;94098.00;;;2.00;82.93
11053;BME280;55230;42.602;23.470;2023-02-18T00:37:08;94203.38;;;2.57;83.47
11053;BME280;55230;42.602;23.470;2023-02-18T00:39:35;94183.59;;;2.62;82.38
11053;BME280;55230;42.602;23.470;2023-02-18T00:42:03;94177.78;;;2.07;82.23
11053;BME280;55230;42.602;23.470;2023-02-18T00:44:30;94169.50;;;2.47;83.42
11053;BME280;55230;42.602;23.470;2023-02-18T00:46:57;94138.28;;;2.16;82.12
11053;BME280;55230;42.602;23.470;2023-02-18T00:49:24;93887.66;;;0.42;81.70
11053;BME280;55230;42.602;23.470;2023-02-18T00:51:51;94094.09;;;1.66;81.41
11053;BME280;55230;42.602;23.470;2023-02-18T00:54:17;94082.72;;;1.65;80.86
11053;BME280;55230;42.602;23.470;2023-02-18T00:56:44;94053.03;;;1.46;81.32
11053;BME280;55230;42.602;23.470;2023-02-18T00:59:12;93553.78;;;-2.05;80.68
11053;BME280;55230;42.602;23.470;2023-02-18T01:01:39;94114.25;;;1.70;81.18
11053;BME280;55230;42.602;23.470;2023-02-18T01:04:06;93700.13;;;-1.30;82.78
11053;BME280;55230;42.602;23.470;2023-02-18T01:06:33;93656.31;;;-1.27;82.49
11053;BME280;55230;42.602;23.470;2023-02-18T01:09:00;94092.09;;;1.38;83.21
11053;BME280;55230;42.602;23.470;2023-02-18T01:11:27;94117.25;;;1.62;82.91
11053;BME280;55230;42.602;23.470;2023-02-18T01:13:54;93862.88;;;0.06;82.87
11053;BME280;55230;42.602;23.470;2023-02-18T01:16:22;94045.41;;;1.41;82.60
11053;BME280;55230;42.602;23.470;2023-02-18T01:18:49;93677.91;;;-1.18;82.41
11053;BME280;55230;42.602;23.470;2023-02-18T01:21:16;94216.59;;;2.25;83.79
11053;BME280;55230;42.602;23.470;2023-02-18T01:23:43;94180.84;;;2.23;83.47
11053;BME280;55230;42.602;23.470;2023-02-18T01:26:10;93726.09;;;-0.95;83.12
11053;BME280;55230;42.602;23.470;2023-02-18T01:28:37;94155.72;;;2.03;83.93
11053;BME280;55230;42.602;23.470;2023-02-18T01:31:06;94180.84;;;2.16;84.70
11053;BME280;55230;42.602;23.470;2023-02-18T01:33:35;93713.13;;;-1.07;83.98
11053;BME280;55230;42.602;23.470;2023-02-18T01:36:03;94194.53;;;2.18;84.80
11053;BME280;55230;42.602;23.470;2023-02-18T01:38:30;94164.91;;;2.30;83.59
11053;BME280;55230;42.602;23.470;2023-02-18T01:40:57;94174.00;;;2.11;83.48
11053;BME280;55230;42.602;23.470;2023-02-18T01:43:24;94189.19;;;2.14;82.33
11053;BME280;55230;42.602;23.470;2023-02-18T01:45:56;93886.66;;;-0.08;82.28
11053;BME280;55230;42.602;23.470;2023-02-18T01:48:26;94169.47;;;2.19;82.94
11053;BME280;55230;42.602;23.470;2023-02-18T01:51:00;94182.34;;;2.10;83.39
11053;BME280;55230;42.602;23.470;2023-02-18T01:53:30;94109.31;;;1.72;82.97
11053;BME280;55230;42.602;23.470;2023-02-18T01:55:59;94209.38;;;2.19;83.28
11053;BME280;55230;42.602;23.470;2023-02-18T01:58:28;94098.63;;;1.58;83.29
11053;BME280;55230;42.602;23.470;2023-02-18T02:00:55;94130.56;;;1.65;83.33
11053;BME280;55230;42.602;23.470;2023-02-18T02:03:22;94179.28;;;2.04;83.57
11053;BME280;55230;42.602;23.470;2023-02-18T02:05:49;94173.16;;;1.83;83.10
11053;BME280;55230;42.602;23.470;2023-02-18T02:08:17;94218.06;;;2.09;82.95
11053;BME280;55230;42.602;23.470;2023-02-18T02:11:06;94183.41;;;1.81;82.96
11053;BME280;55230;42.602;23.470;2023-02-18T02:13:48;94077.63;;;1.29;83.24
11053;BME280;55230;42.602;23.470;2023-02-18T02:16:22;94100.84;;;1.42;83.31
11053;BME280;55230;42.602;23.470;2023-02-18T02:18:59;94179.66;;;1.96;83.71
11053;BME280;55230;42.602;23.470;2023-02-18T02:21:49;94179.69;;;2.10;84.12
11053;BME280;55230;42.602;23.470;2023-02-18T02:24:36;94212.31;;;1.93;83.39
11053;BME280;55230;42.602;23.470;2023-02-18T02:27:14;94158.78;;;2.01;83.45
11053;BME280;55230;42.602;23.470;2023-02-18T02:35:49;94209.72;;;2.07;84.48
11053;BME280;55230;42.602;23.470;2023-02-18T02:38:24;94188.44;;;2.10;84.46
11053;BME280;55230;42.602;23.470;2023-02-18T02:41:01;94015.78;;;0.46;84.15
11053;BME280;55230;42.602;23.470;2023-02-18T02:43:40;94063.19;;;1.15;84.20
11053;BME280;55230;42.602;23.470;2023-02-18T02:46:17;94102.84;;;1.73;83.76
11053;BME280;55230;42.602;23.470;2023-02-18T02:48:48;94072.03;;;1.51;82.97
11053;BME280;55230;42.602;23.470;2023-02-18T02:51:23;93941.25;;;0.75;82.57
11053;BME280;55230;42.602;23.470;2023-02-18T02:53:51;94027.56;;;1.34;82.78
11053;BME280;55230;42.602;23.470;2023-02-18T02:56:20;94102.50;;;1.89;83.82
11053;BME280;55230;42.602;23.470;2023-02-18T02:58:55;94153.88;;;2.35;83.97
11053;BME280;55230;42.602;23.470;2023-02-18T03:01:32;94162.59;;;2.18;82.73
11053;BME280;55230;42.602;23.470;2023-02-18T03:04:30;94099.50;;;2.01;82.22
11053;BME280;55230;42.602;23.470;2023-02-18T03:07:36;94170.63;;;2.39;81.59
11053;BME280;55230;42.602;23.470;2023-02-18T03:10:16;94168.34;;;2.41;81.23
11053;BME280;55230;42.602;23.470;2023-02-18T03:12:53;94128.75;;;2.08;81.20
11053;BME280;55230;42.602;23.470;2023-02-18T03:15:32;94030.25;;;1.45;80.87
11053;BME280;55230;42.602;23.470;2023-02-18T03:18:06;94273.69;;;2.46;80.89
11053;BME280;55230;42.602;23.470;2023-02-18T03:20:36;94203.72;;;2.45;79.61
11053;BME280;55230;42.602;23.470;2023-02-18T03:23:08;94110.84;;;1.84;79.36
11053;BME280;55230;42.602;23.470;2023-02-18T03:25:36;94224.28;;;2.52;79.79
11053;BME280;55230;42.602;23.470;2023-02-18T03:28:08;94174.41;;;2.20;79.00
11053;BME280;55230;42.602;23.470;2023-02-18T03:30:45;94247.09;;;2.56;79.38
11053;BME280;55230;42.602;23.470;2023-02-18T03:33:16;94198.06;;;2.57;79.06
11053;BME280;55230;42.602;23.470;2023-02-18T03:35:44;94102.13;;;1.87;79.05
11053;BME280;55230;42.602;23.470;2023-02-18T03:38:17;94081.84;;;1.37;80.46
11053;BME280;55230;42.602;23.470;2023-02-18T03:40:44;94233.31;;;2.19;82.88
11053;BME280;55230;42.602;23.470;2023-02-18T03:43:12;94160.91;;;1.61;83.01
11053;BME280;55230;42.602;23.470;2023-02-18T03:45:38;93853.84;;;-0.47;83.35
11053;BME280;55230;42.602;23.470;2023-02-18T03:48:06;94167.28;;;1.46;84.07
11053;BME280;55230;42.602;23.470;2023-02-18T03:50:33;94150.53;;;1.38;84.59
11053;BME280;55230;42.602;23.470;2023-02-18T03:52:59;94222.91;;;1.82;86.10
11053;BME280;55230;42.602;23.470;2023-02-18T03:55:28;94248.38;;;1.87;86.52
11053;BME280;55230;42.602;23.470;2023-02-18T03:57:55;93840.28;;;-0.89;86.95
11053;BME280;55230;42.602;23.470;2023-02-18T04:00:22;94061.06;;;0.74;87.01
11053;BME280;55230;42.602;23.470;2023-02-18T04:02:48;94150.06;;;1.15;87.34
11053;BME280;55230;42.602;23.470;2023-02-18T04:05:15;93544.81;;;-2.78;87.02
11053;BME280;55230;42.602;23.470;2023-02-18T04:07:42;94219.84;;;1.77;87.26
11053;BME280;55230;42.602;23.470;2023-02-18T04:10:10;94191.13;;;1.32;87.06
11053;BME280;55230;42.602;23.470;2023-02-18T04:12:38;94168.41;;;1.38;86.71
11053;BME280;55230;42.602;23.470;2023-02-18T04:15:05;93804.75;;;-1.32;85.88
11053;BME280;55230;42.602;23.470;2023-02-18T04:17:33;94130.13;;;1.53;86.15
11053;BME280;55230;42.602;23.470;2023-02-18T04:19:59;93974.22;;;0.06;86.50
11053;BME280;55230;42.602;23.470;2023-02-18T04:22:27;93879.44;;;-0.15;86.23
11053;BME280;55230;42.602;23.470;2023-02-18T04:24:54;93950.75;;;0.08;85.56
11053;BME280;55230;42.602;23.470;2023-02-18T04:27:21;94144.16;;;1.50;85.26
11053;BME280;55230;42.602;23.470;2023-02-18T04:29:49;93882.16;;;-0.04;85.18
11053;BME280;55230;42.602;23.470;2023-02-18T04:32:17;94176.91;;;1.78;84.98
11053;BME280;55230;42.602;23.470;2023-02-18T04:34:43;94256.06;;;2.13;83.68
11053;BME280;55230;42.602;23.470;2023-02-18T04:37:10;94182.72;;;2.01;83.84
11053;BME280;55230;42.602;23.470;2023-02-18T04:39:37;93865.88;;;-0.03;83.21
11053;BME280;55230;42.602;23.470;2023-02-18T04:42:04;94175.06;;;1.86;83.32
11053;BME280;55230;42.602;23.470;2023-02-18T04:44:33;94195.28;;;2.15;83.34
11053;BME280;55230;42.602;23.470;2023-02-18T04:47:01;94197.97;;;2.22;82.75
11053;BME280;55230;42.602;23.470;2023-02-18T04:49:28;94223.03;;;2.10;83.15
11053;BME280;55230;42.602;23.470;2023-02-18T04:51:55;94090.91;;;1.29;83.07
11053;BME280;55230;42.602;23.470;2023-02-18T04:54:22;93696.25;;;-1.39;82.76
11053;BME280;55230;42.602;23.470;2023-02-18T04:56:49;94202.09;;;2.12;82.92
11053;BME280;55230;42.602;23.470;2023-02-18T04:59:16;94199.81;;;2.11;82.75
11053;BME280;55230;42.602;23.470;2023-02-18T05:01:43;94085.56;;;1.22;82.48
11053;BME280;55230;42.602;23.470;2023-02-18T05:04:11;93928.88;;;0.25;82.62
11053;BME280;55230;42.602;23.470;2023-02-18T05:06:38;93838.22;;;-0.63;82.29
11053;BME280;55230;42.602;23.470;2023-02-18T05:09:07;94148.03;;;1.70;82.36
11053;BME280;55230;42.602;23.470;2023-02-18T05:11:34;94189.88;;;1.90;82.42
11053;BME280;55230;42.602;23.470;2023-02-18T05:14:01;94191.66;;;1.62;83.13
11053;BME280;55230;42.602;23.470;2023-02-18T05:16:28;94241.66;;;2.10;83.13
11053;BME280;55230;42.602;23.470;2023-02-18T05:18:55;94108.34;;;1.23;83.16
11053;BME280;55230;42.602;23.470;2023-02-18T05:21:23;94098.13;;;1.32;83.00
11053;BME280;55230;42.602;23.470;2023-02-18T05:23:50;94011.00;;;0.69;83.78
11053;BME280;55230;42.602;23.470;2023-02-18T05:26:17;94094.06;;;1.52;83.42
11053;BME280;55230;42.602;23.470;2023-02-18T05:28:44;94149.56;;;1.71;83.97
11053;BME280;55230;42.602;23.470;2023-02-18T05:31:11;94160.66;;;1.97;83.41
11053;BME280;55230;42.602;23.470;2023-02-18T05:33:38;93787.56;;;-0.58;83.25
11053;BME280;55230;42.602;23.470;2023-02-18T05:36:05;94190.63;;;1.87;83.34
11053;BME280;55230;42.602;23.470;2023-02-18T05:38:34;93856.09;;;0.12;83.22
11053;BME280;55230;42.602;23.470;2023-02-18T05:41:01;94045.31;;;1.16;84.33
11053;BME280;55230;42.602;23.470;2023-02-18T05:43:28;94159.09;;;1.86;83.22
11053;BME280;55230;42.602;23.470;2023-02-18T05:45:55;94206.75;;;2.51;82.95
11053;BME280;55230;42.602;23.470;2023-02-18T05:48:22;93949.66;;;0.95;81.96
11053;BME280;55230;42.602;23.470;2023-02-18T05:50:53;94090.75;;;1.97;81.48
11053;BME280;55230;42.602;23.470;2023-02-18T05:53:19;94140.56;;;2.28;80.82
11053;BME280;55230;42.602;23.470;2023-02-18T05:55:48;94204.91;;;2.76;80.62
11053;BME280;55230;42.602;23.470;2023-02-18T05:58:15;93732.53;;;-0.17;80.77
11053;BME280;55230;42.602;23.470;2023-02-18T06:00:42;94284.06;;;3.07;81.04
11053;BME280;55230;42.602;23.470;2023-02-18T06:03:09;94135.28;;;2.67;79.21
11053;BME280;55230;42.602;23.470;2023-02-18T06:05:36;94088.13;;;2.25;78.86
11053;BME280;55230;42.602;23.470;2023-02-18T06:08:03;94172.56;;;2.88;77.45
11053;BME280;55230;42.602;23.470;2023-02-18T06:10:30;94191.22;;;3.09;76.92
11053;BME280;55230;42.602;23.470;2023-02-18T06:12:58;94087.38;;;2.70;74.82
11053;BME280;55230;42.602;23.470;2023-02-18T06:15:26;94157.66;;;3.39;75.02
11053;BME280;55230;42.602;23.470;2023-02-18T06:17:53;94217.31;;;3.91;74.48
11053;BME280;55230;42.602;23.470;2023-02-18T06:20:20;94089.66;;;2.65;74.82
11053;BME280;55230;42.602;23.470;2023-02-18T06:22:47;94157.06;;;3.94;74.05
11053;BME280;55230;42.602;23.470;2023-02-18T06:25:14;93828.25;;;1.94;73.17
11053;BME280;55230;42.602;23.470;2023-02-18T06:27:41;94221.81;;;4.84;71.78
11053;BME280;55230;42.602;23.470;2023-02-18T06:30:10;94169.56;;;4.76;70.16
11053;BME280;55230;42.602;23.470;2023-02-18T06:32:36;94143.44;;;4.98;68.75
11053;BME280;55230;42.602;23.470;2023-02-18T06:35:04;94200.44;;;5.28;68.55
11053;BME280;55230;42.602;23.470;2023-02-18T06:37:31;94130.09;;;4.94;67.85
11053;BME280;55230;42.602;23.470;2023-02-18T06:39:58;94095.22;;;4.71;67.62
11053;BME280;55230;42.602;23.470;2023-02-18T06:42:25;94127.13;;;5.29;67.72
11053;BME280;55230;42.602;23.470;2023-02-18T06:44:51;94193.78;;;5.88;68.45
11053;BME280;55230;42.602;23.470;2023-02-18T06:47:20;94097.88;;;5.45;67.88
11053;BME280;55230;42.602;23.470;2023-02-18T06:49:47;94161.25;;;6.23;66.76
11053;BME280;55230;42.602;23.470;2023-02-18T06:52:14;94217.28;;;6.07;67.52
11053;BME280;55230;42.602;23.470;2023-02-18T06:54:41;94160.78;;;5.98;64.82
11053;BME280;55230;42.602;23.470;2023-02-18T06:57:07;94158.06;;;6.31;64.74
11053;BME280;55230;42.602;23.470;2023-02-18T06:59:34;94180.88;;;6.69;63.48
11053;BME280;55230;42.602;23.470;2023-02-18T07:02:01;94216.31;;;7.07;62.26
11053;BME280;55230;42.602;23.470;2023-02-18T07:04:29;94142.84;;;6.78;60.42
11053;BME280;55230;42.602;23.470;2023-02-18T07:06:56;94174.44;;;7.13;56.83
11053;BME280;55230;42.602;23.470;2023-02-18T07:09:23;94102.19;;;6.83;57.79
11053;BME280;55230;42.602;23.470;2023-02-18T07:11:50;94198.59;;;7.36;59.03
11053;BME280;55230;42.602;23.470;2023-02-18T07:14:17;94015.88;;;5.35;60.28
11053;BME280;55230;42.602;23.470;2023-02-18T07:16:44;93774.97;;;3.83;61.15
11053;BME280;55230;42.602;23.470;2023-02-18T07:19:10;94235.94;;;6.74;60.84
11053;BME280;55230;42.602;23.470;2023-02-18T07:21:39;94170.41;;;6.22;62.43
11053;BME280;55230;42.602;23.470;2023-02-18T07:24:06;94234.31;;;6.53;63.59
11053;BME280;55230;42.602;23.470;2023-02-18T07:26:32;94152.75;;;5.98;61.89
11053;BME280;55230;42.602;23.470;2023-02-18T07:28:59;94123.53;;;5.76;64.06
11053;BME280;55230;42.602;23.470;2023-02-18T07:31:26;94154.13;;;6.39;61.32
11053;BME280;55230;42.602;23.470;2023-02-18T07:33:53;94205.59;;;7.07;59.08
11053;BME280;55230;42.602;23.470;2023-02-18T07:36:20;94109.25;;;6.70;58.92
11053;BME280;55230;42.602;23.470;2023-02-18T07:38:48;93675.31;;;3.32;56.35
11053;BME280;55230;42.602;23.470;2023-02-18T07:41:17;94206.63;;;7.13;56.26
11053;BME280;55230;42.602;23.470;2023-02-18T07:43:44;94007.16;;;5.92;55.39
11053;BME280;55230;42.602;23.470;2023-02-18T07:46:11;94201.53;;;7.45;55.46
11053;BME280;55230;42.602;23.470;2023-02-18T07:48:38;93951.69;;;5.65;54.30
11053;BME280;55230;42.602;23.470;2023-02-18T07:51:05;94231.97;;;7.58;53.90
11053;BME280;55230;42.602;23.470;2023-02-18T07:53:32;94249.44;;;7.20;54.20
11053;BME280;55230;42.602;23.470;2023-02-18T07:56:01;94262.28;;;7.32;56.25
11053;BME280;55230;42.602;23.470;2023-02-18T07:58:29;94212.00;;;7.59;55.47
11053;BME280;55230;42.602;23.470;2023-02-18T08:00:57;94132.50;;;7.46;54.26
11053;BME280;55230;42.602;23.470;2023-02-18T08:03:27;94141.19;;;7.53;52.08
11053;BME280;55230;42.602;23.470;2023-02-18T08:05:55;94203.88;;;8.05;51.83
11053;BME280;55230;42.602;23.470;2023-02-18T08:08:23;94116.91;;;7.60;51.92
11053;BME280;55230;42.602;23.470;2023-02-18T08:10:52;94178.19;;;8.04;50.78
11053;BME280;55230;42.602;23.470;2023-02-18T08:13:21;94139.59;;;8.14;50.89
11053;BME280;55230;42.602;23.470;2023-02-18T08:15:48;94129.63;;;8.35;50.44
11053;BME280;55230;42.602;23.470;2023-02-18T08:18:17;93811.06;;;6.69;49.01
11053;BME280;55230;42.602;23.470;2023-02-18T08:20:44;94227.03;;;9.74;48.79
11053;BME280;55230;42.602;23.470;2023-02-18T08:23:13;94196.03;;;9.98;48.18
11053;BME280;55230;42.602;23.470;2023-02-18T08:25:40;94102.13;;;9.84;46.73
11053;BME280;55230;42.602;23.470;2023-02-18T08:28:10;94124.00;;;10.27;45.36
11053;BME280;55230;42.602;23.470;2023-02-18T08:30:43;94164.94;;;11.01;44.76
11053;BME280;55230;42.602;23.470;2023-02-18T08:33:10;94134.94;;;10.99;41.59
11053;BME280;55230;42.602;23.470;2023-02-18T08:35:37;94053.19;;;9.73;40.75
11053;BME280;55230;42.602;23.470;2023-02-18T08:38:04;94215.63;;;10.56;41.57
11053;BME280;55230;42.602;23.470;2023-02-18T08:40:30;94018.59;;;8.70;42.00
11053;BME280;55230;42.602;23.470;2023-02-18T08:42:57;94200.69;;;10.26;41.66
11053;BME280;55230;42.602;23.470;2023-02-18T08:45:24;94203.75;;;10.54;41.69
11053;BME280;55230;42.602;23.470;2023-02-18T08:47:53;94109.13;;;10.23;41.19
11053;BME280;55230;42.602;23.470;2023-02-18T08:50:20;94184.38;;;11.09;41.42
11053;BME280;55230;42.602;23.470;2023-02-18T08:52:50;94181.25;;;10.98;40.71
11053;BME280;55230;42.602;23.470;2023-02-18T08:55:17;94173.72;;;10.39;41.92
11053;BME280;55230;42.602;23.470;2023-02-18T08:57:45;94093.56;;;9.00;43.80
11053;BME280;55230;42.602;23.470;2023-02-18T09:00:13;94143.81;;;8.71;45.68
11053;BME280;55230;42.602;23.470;2023-02-18T09:02:41;94195.59;;;9.07;45.80
11053;BME280;55230;42.602;23.470;2023-02-18T09:05:09;94210.69;;;8.69;46.69
11053;BME280;55230;42.602;23.470;2023-02-18T09:07:36;94207.00;;;8.79;46.77
11053;BME280;55230;42.602;23.470;2023-02-18T09:10:04;94130.31;;;8.39;47.74
11053;BME280;55230;42.602;23.470;2023-02-18T09:12:31;94211.13;;;8.83;47.09
11053;BME280;55230;42.602;23.470;2023-02-18T09:14:58;94193.28;;;8.57;47.66
11053;BME280;55230;42.602;23.470;2023-02-18T09:17:24;94211.50;;;8.66;48.84
11053;BME280;55230;42.602;23.470;2023-02-18T09:19:51;94203.00;;;9.03;48.01
11053;BME280;55230;42.602;23.470;2023-02-18T09:22:20;94092.91;;;8.80;47.79
11053;BME280;55230;42.602;23.470;2023-02-18T09:24:46;93992.41;;;8.74;47.89
11053;BME280;55230;42.602;23.470;2023-02-18T09:27:13;94094.88;;;8.60;47.03
11053;BME280;55230;42.602;23.470;2023-02-18T09:29:40;94217.81;;;9.43;47.08
11053;BME280;55230;42.602;23.470;2023-02-18T09:32:08;94137.44;;;8.81;47.85
11053;BME280;55230;42.602;23.470;2023-02-18T09:34:36;94173.59;;;9.12;47.92
11053;BME280;55230;42.602;23.470;2023-02-18T09:37:03;94143.31;;;9.24;47.22
11053;BME280;55230;42.602;23.470;2023-02-18T09:39:31;94182.13;;;10.00;47.12
11053;BME280;55230;42.602;23.470;2023-02-18T09:42:00;94095.03;;;9.90;44.30
11053;BME280;55230;42.602;23.470;2023-02-18T09:44:29;94179.31;;;10.73;44.60
11053;BME280;55230;42.602;23.470;2023-02-18T09:47:01;93857.63;;;8.59;44.34
11053;BME280;55230;42.602;23.470;2023-02-18T09:49:30;94088.09;;;10.30;42.51
11053;BME280;55230;42.602;23.470;2023-02-18T09:52:03;94171.66;;;10.97;42.11
11053;BME280;55230;42.602;23.470;2023-02-18T09:54:32;94136.66;;;11.06;41.43
11053;BME280;55230;42.602;23.470;2023-02-18T09:57:00;94023.09;;;11.13;40.83
11053;BME280;55230;42.602;23.470;2023-02-18T09:59:29;94085.34;;;12.08;39.85
11053;BME280;55230;42.602;23.470;2023-02-18T10:01:57;93869.91;;;10.61;38.47
11053;BME280;55230;42.602;23.470;2023-02-18T10:04:28;94179.50;;;12.53;37.92
11053;BME280;55230;42.602;23.470;2023-02-18T10:06:57;94084.75;;;11.36;39.02
11053;BME280;55230;42.602;23.470;2023-02-18T10:09:27;94189.75;;;11.93;39.40
11053;BME280;55230;42.602;23.470;2023-02-18T10:11:59;94182.59;;;11.65;39.69
11053;BME280;55230;42.602;23.470;2023-02-18T10:14:28;94183.47;;;11.96;39.80
11053;BME280;55230;42.602;23.470;2023-02-18T10:16:57;94125.28;;;11.70;39.34
11053;BME280;55230;42.602;23.470;2023-02-18T10:19:28;93899.19;;;10.37;39.00
11053;BME280;55230;42.602;23.470;2023-02-18T10:21:56;93807.00;;;9.96;38.36
11053;BME280;55230;42.602;23.470;2023-02-18T10:24:27;94017.19;;;12.13;38.89
11053;BME280;55230;42.602;23.470;2023-02-18T10:26:56;94117.03;;;12.60;37.89
11053;BME280;55230;42.602;23.470;2023-02-18T10:29:24;93865.28;;;11.05;38.50
11053;BME280;55230;42.602;23.470;2023-02-18T10:31:55;94159.75;;;13.44;38.72
11053;BME280;55230;42.602;23.470;2023-02-18T10:34:30;94174.13;;;13.90;37.38
11053;BME280;55230;42.602;23.470;2023-02-18T10:37:07;93846.47;;;11.75;36.41
11053;BME280;55230;42.602;23.470;2023-02-18T10:39:47;94101.66;;;13.45;36.80
11053;BME280;55230;42.602;23.470;2023-02-18T10:42:29;93933.63;;;12.37;36.48
11053;BME280;55230;42.602;23.470;2023-02-18T10:45:07;94147.31;;;14.19;35.58
11053;BME280;55230;42.602;23.470;2023-02-18T10:47:38;94137.22;;;13.65;35.79
11053;BME280;55230;42.602;23.470;2023-02-18T10:50:10;94040.41;;;12.32;36.51
11053;BME280;55230;42.602;23.470;2023-02-18T10:52:41;94124.09;;;13.55;38.15
11053;BME280;55230;42.602;23.470;2023-02-18T10:55:10;94117.78;;;14.03;35.77
11053;BME280;55230;42.602;23.470;2023-02-18T10:57:47;94119.22;;;13.14;35.89
11053;BME280;55230;42.602;23.470;2023-02-18T11:00:17;94076.63;;;13.14;35.71
11053;BME280;55230;42.602;23.470;2023-02-18T11:02:45;94017.81;;;12.17;36.29
11053;BME280;55230;42.602;23.470;2023-02-18T11:05:19;94120.31;;;13.25;35.98
11053;BME280;55230;42.602;23.470;2023-02-18T11:07:50;94117.72;;;13.13;36.65
11053;BME280;55230;42.602;23.470;2023-02-18T11:10:21;93992.41;;;12.54;35.90
11053;BME280;55230;42.602;23.470;2023-02-18T11:12:55;94120.78;;;13.60;35.88
11053;BME280;55230;42.602;23.470;2023-02-18T11:15:24;94078.66;;;13.59;35.35
11053;BME280;55230;42.602;23.470;2023-02-18T11:17:53;94109.06;;;13.99;35.38
11053;BME280;55230;42.602;23.470;2023-02-18T11:20:24;94024.66;;;12.89;35.97
11053;BME280;55230;42.602;23.470;2023-02-18T11:22:51;94094.91;;;13.68;35.76
11053;BME280;55230;42.602;23.470;2023-02-18T11:25:25;94111.78;;;13.99;35.17
11053;BME280;55230;42.602;23.470;2023-02-18T11:27:55;94081.50;;;13.82;34.94
11053;BME280;55230;42.602;23.470;2023-02-18T11:30:24;94027.47;;;13.52;35.18
11053;BME280;55230;42.602;23.470;2023-02-18T11:32:54;94070.28;;;14.44;35.26
11053;BME280;55230;42.602;23.470;2023-02-18T11:35:24;94070.50;;;14.96;34.41
11053;BME280;55230;42.602;23.470;2023-02-18T11:37:53;94073.31;;;15.11;34.17
11053;BME280;55230;42.602;23.470;2023-02-18T11:40:23;93806.25;;;13.40;34.10
11053;BME280;55230;42.602;23.470;2023-02-18T11:42:50;93807.69;;;13.59;34.12
11053;BME280;55230;42.602;23.470;2023-02-18T11:45:30;94007.88;;;15.24;33.31
11053;BME280;55230;42.602;23.470;2023-02-18T11:47:59;94044.88;;;15.45;32.24
11053;BME280;55230;42.602;23.470;2023-02-18T11:50:30;94039.75;;;15.47;32.19
11053;BME280;55230;42.602;23.470;2023-02-18T11:52:57;94036.31;;;14.90;33.58
11053;BME280;55230;42.602;23.470;2023-02-18T11:55:25;94018.38;;;14.60;33.11
11053;BME280;55230;42.602;23.470;2023-02-18T11:57:55;94024.38;;;14.64;33.04
11053;BME280;55230;42.602;23.470;2023-02-18T12:00:24;94024.03;;;14.38;33.47
11053;BME280;55230;42.602;23.470;2023-02-18T12:02:59;94004.44;;;14.25;33.58
11053;BME280;55230;42.602;23.470;2023-02-18T12:05:28;93583.50;;;11.60;33.47
11053;BME280;55230;42.602;23.470;2023-02-18T12:08:01;94004.41;;;14.43;34.24
11053;BME280;55230;42.602;23.470;2023-02-18T12:10:32;93984.97;;;13.94;33.95
11053;BME280;55230;42.602;23.470;2023-02-18T12:13:03;93927.22;;;13.52;33.41
11053;BME280;55230;42.602;23.470;2023-02-18T12:15:46;94003.25;;;14.17;34.29
11053;BME280;55230;42.602;23.470;2023-02-18T12:18:32;94004.81;;;14.00;34.76
11053;BME280;55230;42.602;23.470;2023-02-18T12:21:14;93921.03;;;13.51;34.50
11053;BME280;55230;42.602;23.470;2023-02-18T12:23:52;94003.00;;;14.06;34.34
11053;BME280;55230;42.602;23.470;2023-02-18T12:26:25;94003.88;;;14.12;34.36
11053;BME280;55230;42.602;23.470;2023-02-18T12:29:04;93827.09;;;12.70;35.13
11053;BME280;55230;42.602;23.470;2023-02-18T12:31:52;93995.72;;;14.21;33.92
11053;BME280;55230;42.602;23.470;2023-02-18T12:34:39;94047.22;;;14.39;34.06
11053;BME280;55230;42.602;23.470;2023-02-18T12:37:21;93988.22;;;14.58;33.95
11053;BME280;55230;42.602;23.470;2023-02-18T12:40:03;93967.84;;;14.30;34.75
11053;BME280;55230;42.602;23.470;2023-02-18T12:42:45;93943.75;;;14.14;34.97
11053;BME280;55230;42.602;23.470;2023-02-18T12:45:56;93971.13;;;14.66;34.14
11053;BME280;55230;42.602;23.470;2023-02-18T12:48:37;93885.22;;;14.31;33.93
11053;BME280;55230;42.602;23.470;2023-02-18T12:51:28;94012.69;;;15.29;34.56
11053;BME280;55230;42.602;23.470;2023-02-18T12:54:14;93929.09;;;15.24;34.13
11053;BME280;55230;42.602;23.470;2023-02-18T12:59:49;93875.97;;;14.84;32.88
11053;BME280;55230;42.602;23.470;2023-02-18T13:02:39;93901.66;;;15.22;34.33
11053;BME280;55230;42.602;23.470;2023-02-18T13:05:23;93875.72;;;15.35;33.05
11053;BME280;55230;42.602;23.470;2023-02-18T13:08:02;93897.28;;;15.00;33.36
11053;BME280;55230;42.602;23.470;2023-02-18T13:10:55;93850.19;;;14.18;33.89
11053;BME280;55230;42.602;23.470;2023-02-18T13:13:30;93949.19;;;15.02;34.61
11053;BME280;55230;42.602;23.470;2023-02-18T13:16:00;93816.09;;;14.26;33.68
11053;BME280;55230;42.602;23.470;2023-02-18T13:18:32;93951.78;;;15.35;33.76
11053;BME280;55230;42.602;23.470;2023-02-18T13:21:03;93929.53;;;15.46;33.36